sensor_id;sensor_type;location;lat;lon;timestamp;P1;durP1;ratioP1;P2;durP2;ratioP2
23617;SDS011;18207;32.078;34.818;2022-12-07T00:00:36;4.90;;;4.43;;
23617;SDS011;18207;32.078;34.818;2022-12-07T00:03:07;5.18;;;4.70;;
23617;SDS011;18207;32.078;34.818;2022-12-07T00:05:37;4.88;;;4.03;;
23617;SDS011;18207;32.078;34.818;2022-12-07T00:08:08;4.38;;;3.95;;
23617;SDS011;18207;32.078;34.818;2022-12-07T00:10:40;5.35;;;4.20;;
23617;SDS011;18207;32.078;34.818;2022-12-07T00:13:10;5.22;;;4.45;;
23617;SDS011;18207;32.078;34.818;2022-12-07T00:15:41;4.65;;;4.05;;
23617;SDS011;18207;32.078;34.818;2022-12-07T00:18:11;4.57;;;4.18;;
23617;SDS011;18207;32.078;34.818;2022-12-07T00:20:42;4.47;;;4.07;;
23617;SDS011;18207;32.078;34.818;2022-12-07T00:23:12;4.32;;;3.92;;
23617;SDS011;18207;32.078;34.818;2022-12-07T00:25:44;4.43;;;4.03;;
23617;SDS011;18207;32.078;34.818;2022-12-07T00:28:16;4.35;;;3.90;;
23617;SDS011;18207;32.078;34.818;2022-12-07T00:30:46;4.43;;;4.03;;
23617;SDS011;18207;32.078;34.818;2022-12-07T00:33:17;4.47;;;4.07;;
23617;SDS011;18207;32.078;34.818;2022-12-07T00:35:54;4.45;;;4.05;;
23617;SDS011;18207;32.078;34.818;2022-12-07T00:38:27;4.47;;;4.07;;
23617;SDS011;18207;32.078;34.818;2022-12-07T00:41:03;4.82;;;3.85;;
23617;SDS011;18207;32.078;34.818;2022-12-07T00:43:35;4.30;;;3.95;;
23617;SDS011;18207;32.078;34.818;2022-12-07T00:46:06;4.15;;;3.75;;
23617;SDS011;18207;32.078;34.818;2022-12-07T00:48:37;3.80;;;3.50;;
23617;SDS011;18207;32.078;34.818;2022-12-07T00:51:09;4.13;;;3.58;;
23617;SDS011;18207;32.078;34.818;2022-12-07T00:53:40;3.88;;;3.58;;
23617;SDS011;18207;32.078;34.818;2022-12-07T00:56:15;3.80;;;3.38;;
23617;SDS011;18207;32.078;34.818;2022-12-07T00:58:51;3.35;;;3.15;;
23617;SDS011;18207;32.078;34.818;2022-12-07T01:01:23;3.38;;;3.17;;
23617;SDS011;18207;32.078;34.818;2022-12-07T01:03:57;3.42;;;3.20;;
23617;SDS011;18207;32.078;34.818;2022-12-07T01:06:28;3.63;;;3.28;;
23617;SDS011;18207;32.078;34.818;2022-12-07T01:09:00;3.58;;;3.28;;
23617;SDS011;18207;32.078;34.818;2022-12-07T01:11:33;3.58;;;3.28;;
23617;SDS011;18207;32.078;34.818;2022-12-07T01:14:03;3.42;;;3.13;;
23617;SDS011;18207;32.078;34.818;2022-12-07T01:16:34;3.50;;;3.20;;
23617;SDS011;18207;32.078;34.818;2022-12-07T01:19:05;3.30;;;3.00;;
23617;SDS011;18207;32.078;34.818;2022-12-07T01:21:35;3.03;;;2.83;;
23617;SDS011;18207;32.078;34.818;2022-12-07T01:24:10;4.13;;;2.80;;
23617;SDS011;18207;32.078;34.818;2022-12-07T01:26:42;3.10;;;2.80;;
23617;SDS011;18207;32.078;34.818;2022-12-07T01:29:13;3.85;;;2.65;;
23617;SDS011;18207;32.078;34.818;2022-12-07T01:31:43;2.72;;;2.53;;
23617;SDS011;18207;32.078;34.818;2022-12-07T01:34:13;2.80;;;2.60;;
23617;SDS011;18207;32.078;34.818;2022-12-07T01:36:43;3.45;;;2.60;;
23617;SDS011;18207;32.078;34.818;2022-12-07T01:39:14;2.65;;;2.45;;
23617;SDS011;18207;32.078;34.818;2022-12-07T01:41:46;2.70;;;2.50;;
23617;SDS011;18207;32.078;34.818;2022-12-07T01:44:18;3.10;;;2.80;;
23617;SDS011;18207;32.078;34.818;2022-12-07T01:46:52;2.83;;;2.63;;
23617;SDS011;18207;32.078;34.818;2022-12-07T01:49:29;2.80;;;2.60;;
23617;SDS011;18207;32.078;34.818;2022-12-07T01:52:08;2.85;;;2.65;;
23617;SDS011;18207;32.078;34.818;2022-12-07T01:54:46;2.72;;;2.55;;
23617;SDS011;18207;32.078;34.818;2022-12-07T01:57:22;2.40;;;2.30;;
23617;SDS011;18207;32.078;34.818;2022-12-07T01:59:53;2.92;;;2.72;;
23617;SDS011;18207;32.078;34.818;2022-12-07T02:02:30;3.10;;;2.80;;
23617;SDS011;18207;32.078;34.818;2022-12-07T02:05:04;3.22;;;2.92;;
23617;SDS011;18207;32.078;34.818;2022-12-07T02:07:36;3.00;;;2.80;;
23617;SDS011;18207;32.078;34.818;2022-12-07T02:10:14;3.30;;;3.00;;
23617;SDS011;18207;32.078;34.818;2022-12-07T02:12:50;3.83;;;3.47;;
23617;SDS011;18207;32.078;34.818;2022-12-07T02:15:28;3.88;;;3.47;;
23617;SDS011;18207;32.078;34.818;2022-12-07T02:18:12;4.20;;;3.50;;
23617;SDS011;18207;32.078;34.818;2022-12-07T02:20:54;3.95;;;3.65;;
23617;SDS011;18207;32.078;34.818;2022-12-07T02:23:51;3.97;;;3.67;;
23617;SDS011;18207;32.078;34.818;2022-12-07T02:26:55;3.47;;;3.10;;
23617;SDS011;18207;32.078;34.818;2022-12-07T02:29:58;3.20;;;3.00;;
23617;SDS011;18207;32.078;34.818;2022-12-07T02:32:36;3.25;;;2.95;;
23617;SDS011;18207;32.078;34.818;2022-12-07T02:35:19;3.17;;;2.97;;
23617;SDS011;18207;32.078;34.818;2022-12-07T02:37:59;3.38;;;3.08;;
23617;SDS011;18207;32.078;34.818;2022-12-07T02:40:41;3.30;;;3.00;;
23617;SDS011;18207;32.078;34.818;2022-12-07T02:43:19;3.80;;;3.50;;
23617;SDS011;18207;32.078;34.818;2022-12-07T02:45:57;4.00;;;3.65;;
23617;SDS011;18207;32.078;34.818;2022-12-07T02:48:33;4.25;;;3.88;;
23617;SDS011;18207;32.078;34.818;2022-12-07T02:51:07;4.07;;;3.67;;
23617;SDS011;18207;32.078;34.818;2022-12-07T02:53:38;3.63;;;3.33;;
23617;SDS011;18207;32.078;34.818;2022-12-07T02:56:13;3.83;;;3.53;;
23617;SDS011;18207;32.078;34.818;2022-12-07T02:59:00;3.55;;;3.25;;
23617;SDS011;18207;32.078;34.818;2022-12-07T03:01:50;3.50;;;3.20;;
23617;SDS011;18207;32.078;34.818;2022-12-07T03:04:39;3.20;;;2.92;;
23617;SDS011;18207;32.078;34.818;2022-12-07T03:07:26;3.13;;;2.83;;
23617;SDS011;18207;32.078;34.818;2022-12-07T03:10:09;3.08;;;2.78;;
23617;SDS011;18207;32.078;34.818;2022-12-07T03:12:53;3.15;;;2.85;;
23617;SDS011;18207;32.078;34.818;2022-12-07T03:15:35;3.20;;;2.90;;
23617;SDS011;18207;32.078;34.818;2022-12-07T03:18:18;3.58;;;3.10;;
23617;SDS011;18207;32.078;34.818;2022-12-07T03:20:54;3.40;;;3.10;;
23617;SDS011;18207;32.078;34.818;2022-12-07T03:23:31;3.60;;;3.30;;
23617;SDS011;18207;32.078;34.818;2022-12-07T03:26:06;3.20;;;3.00;;
23617;SDS011;18207;32.078;34.818;2022-12-07T03:28:42;3.20;;;3.00;;
23617;SDS011;18207;32.078;34.818;2022-12-07T03:31:18;4.28;;;3.30;;
23617;SDS011;18207;32.078;34.818;2022-12-07T03:33:56;3.40;;;3.08;;
23617;SDS011;18207;32.078;34.818;2022-12-07T03:36:38;3.10;;;2.85;;
23617;SDS011;18207;32.078;34.818;2022-12-07T03:39:17;3.53;;;3.05;;
23617;SDS011;18207;32.078;34.818;2022-12-07T03:41:55;2.83;;;2.63;;
23617;SDS011;18207;32.078;34.818;2022-12-07T03:44:28;3.50;;;3.20;;
23617;SDS011;18207;32.078;34.818;2022-12-07T03:46:59;3.22;;;2.92;;
23617;SDS011;18207;32.078;34.818;2022-12-07T03:49:40;3.42;;;3.13;;
23617;SDS011;18207;32.078;34.818;2022-12-07T03:52:21;3.00;;;2.80;;
23617;SDS011;18207;32.078;34.818;2022-12-07T03:55:00;3.00;;;2.80;;
23617;SDS011;18207;32.078;34.818;2022-12-07T03:57:38;3.15;;;2.90;;
23617;SDS011;18207;32.078;34.818;2022-12-07T04:00:12;3.10;;;2.90;;
23617;SDS011;18207;32.078;34.818;2022-12-07T04:02:44;3.25;;;2.83;;
23617;SDS011;18207;32.078;34.818;2022-12-07T04:05:16;2.80;;;2.60;;
23617;SDS011;18207;32.078;34.818;2022-12-07T04:07:46;3.20;;;2.67;;
23617;SDS011;18207;32.078;34.818;2022-12-07T04:10:17;3.13;;;2.80;;
23617;SDS011;18207;32.078;34.818;2022-12-07T04:12:48;4.28;;;2.92;;
23617;SDS011;18207;32.078;34.818;2022-12-07T04:15:18;3.08;;;2.78;;
23617;SDS011;18207;32.078;34.818;2022-12-07T04:17:49;3.08;;;2.78;;
23617;SDS011;18207;32.078;34.818;2022-12-07T04:20:21;2.97;;;2.70;;
23617;SDS011;18207;32.078;34.818;2022-12-07T04:22:52;3.10;;;2.80;;
23617;SDS011;18207;32.078;34.818;2022-12-07T04:25:22;2.50;;;2.30;;
23617;SDS011;18207;32.078;34.818;2022-12-07T04:27:53;2.88;;;2.67;;
23617;SDS011;18207;32.078;34.818;2022-12-07T04:30:23;2.72;;;2.53;;
23617;SDS011;18207;32.078;34.818;2022-12-07T04:32:54;2.72;;;2.50;;
23617;SDS011;18207;32.078;34.818;2022-12-07T04:35:26;2.80;;;2.60;;
23617;SDS011;18207;32.078;34.818;2022-12-07T04:37:57;2.65;;;2.45;;
23617;SDS011;18207;32.078;34.818;2022-12-07T04:40:28;3.20;;;2.90;;
23617;SDS011;18207;32.078;34.818;2022-12-07T04:42:58;2.58;;;2.38;;
23617;SDS011;18207;32.078;34.818;2022-12-07T04:45:29;2.42;;;2.33;;
23617;SDS011;18207;32.078;34.818;2022-12-07T04:48:00;2.78;;;2.58;;
23617;SDS011;18207;32.078;34.818;2022-12-07T04:50:32;2.85;;;2.47;;
23617;SDS011;18207;32.078;34.818;2022-12-07T04:53:11;2.75;;;2.55;;
23617;SDS011;18207;32.078;34.818;2022-12-07T04:55:42;2.47;;;2.22;;
23617;SDS011;18207;32.078;34.818;2022-12-07T04:58:12;2.40;;;2.30;;
23617;SDS011;18207;32.078;34.818;2022-12-07T05:00:43;2.70;;;2.50;;
23617;SDS011;18207;32.078;34.818;2022-12-07T05:03:14;2.60;;;2.40;;
23617;SDS011;18207;32.078;34.818;2022-12-07T05:05:46;2.83;;;2.63;;
23617;SDS011;18207;32.078;34.818;2022-12-07T05:08:16;2.55;;;2.35;;
23617;SDS011;18207;32.078;34.818;2022-12-07T05:10:48;2.75;;;2.55;;
23617;SDS011;18207;32.078;34.818;2022-12-07T05:13:19;2.42;;;2.22;;
23617;SDS011;18207;32.078;34.818;2022-12-07T05:15:49;2.55;;;2.25;;
23617;SDS011;18207;32.078;34.818;2022-12-07T05:18:19;2.47;;;2.28;;
23617;SDS011;18207;32.078;34.818;2022-12-07T05:20:52;2.60;;;2.20;;
23617;SDS011;18207;32.078;34.818;2022-12-07T05:23:22;2.60;;;2.40;;
23617;SDS011;18207;32.078;34.818;2022-12-07T05:25:53;2.80;;;2.60;;
23617;SDS011;18207;32.078;34.818;2022-12-07T05:28:23;2.63;;;2.42;;
23617;SDS011;18207;32.078;34.818;2022-12-07T05:30:54;2.92;;;2.40;;
23617;SDS011;18207;32.078;34.818;2022-12-07T05:33:25;2.88;;;2.53;;
23617;SDS011;18207;32.078;34.818;2022-12-07T05:35:58;2.30;;;2.15;;
23617;SDS011;18207;32.078;34.818;2022-12-07T05:38:32;2.28;;;2.13;;
23617;SDS011;18207;32.078;34.818;2022-12-07T05:41:03;2.55;;;2.35;;
23617;SDS011;18207;32.078;34.818;2022-12-07T05:43:55;2.30;;;2.10;;
23617;SDS011;18207;32.078;34.818;2022-12-07T05:46:26;2.15;;;2.05;;
23617;SDS011;18207;32.078;34.818;2022-12-07T05:48:56;2.20;;;2.10;;
23617;SDS011;18207;32.078;34.818;2022-12-07T05:51:29;2.33;;;2.22;;
23617;SDS011;18207;32.078;34.818;2022-12-07T05:53:59;2.03;;;1.92;;
23617;SDS011;18207;32.078;34.818;2022-12-07T05:56:30;2.30;;;2.10;;
23617;SDS011;18207;32.078;34.818;2022-12-07T05:59:00;2.22;;;2.08;;
23617;SDS011;18207;32.078;34.818;2022-12-07T06:01:51;2.17;;;1.98;;
23617;SDS011;18207;32.078;34.818;2022-12-07T06:04:24;2.33;;;2.22;;
23617;SDS011;18207;32.078;34.818;2022-12-07T06:06:58;2.25;;;2.15;;
23617;SDS011;18207;32.078;34.818;2022-12-07T06:09:29;2.13;;;2.03;;
23617;SDS011;18207;32.078;34.818;2022-12-07T06:12:01;2.30;;;2.20;;
23617;SDS011;18207;32.078;34.818;2022-12-07T06:14:51;2.17;;;2.08;;
23617;SDS011;18207;32.078;34.818;2022-12-07T06:17:21;2.17;;;2.08;;
23617;SDS011;18207;32.078;34.818;2022-12-07T06:19:52;2.30;;;2.03;;
23617;SDS011;18207;32.078;34.818;2022-12-07T06:22:24;2.15;;;2.05;;
23617;SDS011;18207;32.078;34.818;2022-12-07T06:24:55;2.10;;;2.00;;
23617;SDS011;18207;32.078;34.818;2022-12-07T06:27:32;2.30;;;2.20;;
23617;SDS011;18207;32.078;34.818;2022-12-07T06:30:04;2.33;;;1.92;;
23617;SDS011;18207;32.078;34.818;2022-12-07T06:32:36;2.20;;;2.00;;
23617;SDS011;18207;32.078;34.818;2022-12-07T06:35:07;2.20;;;2.10;;
23617;SDS011;18207;32.078;34.818;2022-12-07T06:37:39;2.00;;;1.90;;
23617;SDS011;18207;32.078;34.818;2022-12-07T06:40:10;2.10;;;2.00;;
23617;SDS011;18207;32.078;34.818;2022-12-07T06:42:41;2.00;;;1.90;;
23617;SDS011;18207;32.078;34.818;2022-12-07T06:45:12;2.05;;;1.90;;
23617;SDS011;18207;32.078;34.818;2022-12-07T06:47:43;2.40;;;2.20;;
23617;SDS011;18207;32.078;34.818;2022-12-07T06:50:14;2.08;;;1.98;;
23617;SDS011;18207;32.078;34.818;2022-12-07T06:52:47;2.13;;;1.92;;
23617;SDS011;18207;32.078;34.818;2022-12-07T06:55:17;1.88;;;1.77;;
23617;SDS011;18207;32.078;34.818;2022-12-07T06:57:48;1.98;;;1.88;;
23617;SDS011;18207;32.078;34.818;2022-12-07T07:00:19;1.83;;;1.70;;
23617;SDS011;18207;32.078;34.818;2022-12-07T07:02:50;1.90;;;1.80;;
23617;SDS011;18207;32.078;34.818;2022-12-07T07:05:20;1.90;;;1.80;;
23617;SDS011;18207;32.078;34.818;2022-12-07T07:07:53;1.98;;;1.88;;
23617;SDS011;18207;32.078;34.818;2022-12-07T07:10:43;1.60;;;1.50;;
23617;SDS011;18207;32.078;34.818;2022-12-07T07:13:14;1.60;;;1.50;;
23617;SDS011;18207;32.078;34.818;2022-12-07T07:15:45;1.90;;;1.80;;
23617;SDS011;18207;32.078;34.818;2022-12-07T07:18:15;1.65;;;1.55;;
23617;SDS011;18207;32.078;34.818;2022-12-07T07:20:46;1.92;;;1.83;;
23617;SDS011;18207;32.078;34.818;2022-12-07T07:23:18;1.70;;;1.60;;
23617;SDS011;18207;32.078;34.818;2022-12-07T07:25:50;1.83;;;1.70;;
23617;SDS011;18207;32.078;34.818;2022-12-07T07:28:21;1.90;;;1.80;;
23617;SDS011;18207;32.078;34.818;2022-12-07T07:30:51;1.80;;;1.70;;
23617;SDS011;18207;32.078;34.818;2022-12-07T07:33:22;1.65;;;1.55;;
23617;SDS011;18207;32.078;34.818;2022-12-07T07:35:53;1.80;;;1.70;;
23617;SDS011;18207;32.078;34.818;2022-12-07T07:38:24;1.67;;;1.58;;
23617;SDS011;18207;32.078;34.818;2022-12-07T07:40:55;1.70;;;1.60;;
23617;SDS011;18207;32.078;34.818;2022-12-07T07:43:26;1.58;;;1.48;;
23617;SDS011;18207;32.078;34.818;2022-12-07T07:45:56;1.63;;;1.52;;
23617;SDS011;18207;32.078;34.818;2022-12-07T07:48:27;1.80;;;1.70;;
23617;SDS011;18207;32.078;34.818;2022-12-07T07:50:57;1.70;;;1.60;;
23617;SDS011;18207;32.078;34.818;2022-12-07T07:53:30;1.73;;;1.63;;
23617;SDS011;18207;32.078;34.818;2022-12-07T07:56:00;1.90;;;1.65;;
23617;SDS011;18207;32.078;34.818;2022-12-07T07:58:31;1.80;;;1.70;;
23617;SDS011;18207;32.078;34.818;2022-12-07T08:01:05;1.80;;;1.70;;
23617;SDS011;18207;32.078;34.818;2022-12-07T08:03:36;1.83;;;1.73;;
23617;SDS011;18207;32.078;34.818;2022-12-07T08:06:07;1.73;;;1.60;;
23617;SDS011;18207;32.078;34.818;2022-12-07T08:08:39;1.90;;;1.80;;
23617;SDS011;18207;32.078;34.818;2022-12-07T08:11:09;1.80;;;1.70;;
23617;SDS011;18207;32.078;34.818;2022-12-07T08:13:40;2.53;;;1.70;;
23617;SDS011;18207;32.078;34.818;2022-12-07T08:16:10;1.80;;;1.70;;
23617;SDS011;18207;32.078;34.818;2022-12-07T08:18:42;1.73;;;1.63;;
23617;SDS011;18207;32.078;34.818;2022-12-07T08:21:13;1.60;;;1.50;;
23617;SDS011;18207;32.078;34.818;2022-12-07T08:23:46;2.33;;;1.95;;
23617;SDS011;18207;32.078;34.818;2022-12-07T08:26:17;1.70;;;1.60;;
23617;SDS011;18207;32.078;34.818;2022-12-07T08:28:47;2.10;;;1.90;;
23617;SDS011;18207;32.078;34.818;2022-12-07T08:31:17;1.95;;;1.80;;
23617;SDS011;18207;32.078;34.818;2022-12-07T08:33:48;2.05;;;1.90;;
23617;SDS011;18207;32.078;34.818;2022-12-07T08:36:19;1.80;;;1.70;;
23617;SDS011;18207;32.078;34.818;2022-12-07T08:38:52;1.83;;;1.73;;
23617;SDS011;18207;32.078;34.818;2022-12-07T08:41:43;1.80;;;1.70;;
23617;SDS011;18207;32.078;34.818;2022-12-07T08:44:13;2.10;;;1.90;;
23617;SDS011;18207;32.078;34.818;2022-12-07T08:46:44;1.50;;;1.40;;
23617;SDS011;18207;32.078;34.818;2022-12-07T08:49:20;1.58;;;1.48;;
23617;SDS011;18207;32.078;34.818;2022-12-07T08:51:57;2.15;;;1.90;;
23617;SDS011;18207;32.078;34.818;2022-12-07T08:54:30;1.52;;;1.42;;
23617;SDS011;18207;32.078;34.818;2022-12-07T08:57:02;1.80;;;1.70;;
23617;SDS011;18207;32.078;34.818;2022-12-07T08:59:34;1.50;;;1.40;;
23617;SDS011;18207;32.078;34.818;2022-12-07T09:02:06;2.00;;;1.83;;
23617;SDS011;18207;32.078;34.818;2022-12-07T09:04:37;1.55;;;1.45;;
23617;SDS011;18207;32.078;34.818;2022-12-07T09:07:07;1.83;;;1.73;;
23617;SDS011;18207;32.078;34.818;2022-12-07T09:09:40;1.80;;;1.70;;
23617;SDS011;18207;32.078;34.818;2022-12-07T09:12:10;1.83;;;1.73;;
23617;SDS011;18207;32.078;34.818;2022-12-07T09:14:41;1.83;;;1.70;;
23617;SDS011;18207;32.078;34.818;2022-12-07T09:17:12;1.58;;;1.48;;
23617;SDS011;18207;32.078;34.818;2022-12-07T09:19:43;1.70;;;1.60;;
23617;SDS011;18207;32.078;34.818;2022-12-07T09:22:13;1.80;;;1.70;;
23617;SDS011;18207;32.078;34.818;2022-12-07T09:24:45;1.85;;;1.75;;
23617;SDS011;18207;32.078;34.818;2022-12-07T09:27:15;1.88;;;1.77;;
23617;SDS011;18207;32.078;34.818;2022-12-07T09:29:46;2.15;;;2.00;;
23617;SDS011;18207;32.078;34.818;2022-12-07T09:32:16;2.08;;;1.98;;
23617;SDS011;18207;32.078;34.818;2022-12-07T09:34:46;1.85;;;1.75;;
23617;SDS011;18207;32.078;34.818;2022-12-07T09:37:17;2.20;;;1.77;;
23617;SDS011;18207;32.078;34.818;2022-12-07T09:39:49;2.40;;;2.20;;
23617;SDS011;18207;32.078;34.818;2022-12-07T09:42:26;2.30;;;1.90;;
23617;SDS011;18207;32.078;34.818;2022-12-07T09:45:02;1.95;;;1.85;;
23617;SDS011;18207;32.078;34.818;2022-12-07T09:47:41;1.88;;;1.77;;
23617;SDS011;18207;32.078;34.818;2022-12-07T09:50:13;2.03;;;1.92;;
23617;SDS011;18207;32.078;34.818;2022-12-07T09:52:45;1.85;;;1.75;;
23617;SDS011;18207;32.078;34.818;2022-12-07T09:55:21;1.98;;;1.70;;
23617;SDS011;18207;32.078;34.818;2022-12-07T09:57:56;1.73;;;1.60;;
23617;SDS011;18207;32.078;34.818;2022-12-07T10:00:27;1.75;;;1.65;;
23617;SDS011;18207;32.078;34.818;2022-12-07T10:02:58;1.60;;;1.50;;
23617;SDS011;18207;32.078;34.818;2022-12-07T10:05:32;1.55;;;1.45;;
23617;SDS011;18207;32.078;34.818;2022-12-07T10:08:08;1.48;;;1.40;;
23617;SDS011;18207;32.078;34.818;2022-12-07T10:10:44;1.55;;;1.50;;
23617;SDS011;18207;32.078;34.818;2022-12-07T10:13:21;2.22;;;1.30;;
23617;SDS011;18207;32.078;34.818;2022-12-07T10:16:04;1.45;;;1.35;;
23617;SDS011;18207;32.078;34.818;2022-12-07T10:18:47;1.60;;;1.50;;
23617;SDS011;18207;32.078;34.818;2022-12-07T10:21:18;1.55;;;1.45;;
23617;SDS011;18207;32.078;34.818;2022-12-07T10:24:01;1.60;;;1.50;;
23617;SDS011;18207;32.078;34.818;2022-12-07T10:26:38;1.48;;;1.38;;
23617;SDS011;18207;32.078;34.818;2022-12-07T10:29:20;1.50;;;1.40;;
23617;SDS011;18207;32.078;34.818;2022-12-07T10:31:55;1.70;;;1.60;;
23617;SDS011;18207;32.078;34.818;2022-12-07T10:34:29;1.73;;;1.63;;
23617;SDS011;18207;32.078;34.818;2022-12-07T10:37:15;1.90;;;1.42;;
23617;SDS011;18207;32.078;34.818;2022-12-07T10:39:52;1.50;;;1.40;;
23617;SDS011;18207;32.078;34.818;2022-12-07T10:42:26;1.90;;;1.50;;
23617;SDS011;18207;32.078;34.818;2022-12-07T10:45:07;1.88;;;1.50;;
23617;SDS011;18207;32.078;34.818;2022-12-07T10:47:42;1.27;;;1.23;;
23617;SDS011;18207;32.078;34.818;2022-12-07T10:53:24;1.58;;;1.30;;
23617;SDS011;18207;32.078;34.818;2022-12-07T11:02:50;1.67;;;1.20;;
23617;SDS011;18207;32.078;34.818;2022-12-07T11:05:49;1.30;;;1.20;;
23617;SDS011;18207;32.078;34.818;2022-12-07T11:08:35;1.35;;;1.25;;
23617;SDS011;18207;32.078;34.818;2022-12-07T11:11:26;1.20;;;1.10;;
23617;SDS011;18207;32.078;34.818;2022-12-07T11:14:10;1.30;;;1.15;;
23617;SDS011;18207;32.078;34.818;2022-12-07T11:16:57;1.40;;;1.30;;
23617;SDS011;18207;32.078;34.818;2022-12-07T11:19:43;1.33;;;1.23;;
23617;SDS011;18207;32.078;34.818;2022-12-07T11:22:33;1.10;;;1.10;;
23617;SDS011;18207;32.078;34.818;2022-12-07T11:25:22;1.33;;;1.23;;
23617;SDS011;18207;32.078;34.818;2022-12-07T11:28:09;1.35;;;1.25;;
23617;SDS011;18207;32.078;34.818;2022-12-07T11:30:56;1.33;;;1.10;;
23617;SDS011;18207;32.078;34.818;2022-12-07T11:33:43;1.13;;;1.13;;
23617;SDS011;18207;32.078;34.818;2022-12-07T11:36:29;1.30;;;1.30;;
23617;SDS011;18207;32.078;34.818;2022-12-07T11:39:09;1.73;;;1.48;;
23617;SDS011;18207;32.078;34.818;2022-12-07T11:42:00;1.40;;;1.30;;
23617;SDS011;18207;32.078;34.818;2022-12-07T11:44:39;1.42;;;1.33;;
23617;SDS011;18207;32.078;34.818;2022-12-07T11:47:22;1.23;;;1.23;;
23617;SDS011;18207;32.078;34.818;2022-12-07T11:50:10;1.60;;;1.50;;
23617;SDS011;18207;32.078;34.818;2022-12-07T11:52:57;1.55;;;1.10;;
23617;SDS011;18207;32.078;34.818;2022-12-07T11:55:32;1.20;;;1.20;;
23617;SDS011;18207;32.078;34.818;2022-12-07T11:58:15;1.48;;;1.38;;
23617;SDS011;18207;32.078;34.818;2022-12-07T12:01:14;1.30;;;1.30;;
23617;SDS011;18207;32.078;34.818;2022-12-07T12:03:58;1.10;;;1.10;;
23617;SDS011;18207;32.078;34.818;2022-12-07T12:06:43;1.40;;;1.30;;
23617;SDS011;18207;32.078;34.818;2022-12-07T12:09:15;1.42;;;1.38;;
23617;SDS011;18207;32.078;34.818;2022-12-07T12:12:12;1.48;;;1.38;;
23617;SDS011;18207;32.078;34.818;2022-12-07T12:15:30;1.30;;;1.13;;
23617;SDS011;18207;32.078;34.818;2022-12-07T12:21:17;1.25;;;1.15;;
23617;SDS011;18207;32.078;34.818;2022-12-07T12:23:56;1.40;;;1.30;;
23617;SDS011;18207;32.078;34.818;2022-12-07T12:26:32;1.65;;;1.30;;
23617;SDS011;18207;32.078;34.818;2022-12-07T12:29:06;1.35;;;1.27;;
23617;SDS011;18207;32.078;34.818;2022-12-07T12:32:04;1.23;;;1.20;;
23617;SDS011;18207;32.078;34.818;2022-12-07T12:34:57;1.20;;;1.20;;
23617;SDS011;18207;32.078;34.818;2022-12-07T12:37:50;1.10;;;1.10;;
23617;SDS011;18207;32.078;34.818;2022-12-07T12:43:42;2.00;;;1.10;;
23617;SDS011;18207;32.078;34.818;2022-12-07T13:01:53;1.40;;;1.30;;
23617;SDS011;18207;32.078;34.818;2022-12-07T13:04:49;1.38;;;1.30;;
23617;SDS011;18207;32.078;34.818;2022-12-07T13:10:44;1.30;;;1.20;;
23617;SDS011;18207;32.078;34.818;2022-12-07T13:13:30;1.42;;;1.38;;
23617;SDS011;18207;32.078;34.818;2022-12-07T13:22:45;1.30;;;1.20;;
23617;SDS011;18207;32.078;34.818;2022-12-07T13:25:45;1.60;;;1.08;;
23617;SDS011;18207;32.078;34.818;2022-12-07T13:28:31;1.02;;;1.02;;
23617;SDS011;18207;32.078;34.818;2022-12-07T13:31:18;1.52;;;1.42;;
23617;SDS011;18207;32.078;34.818;2022-12-07T13:34:02;1.50;;;1.40;;
23617;SDS011;18207;32.078;34.818;2022-12-07T13:36:37;1.27;;;1.23;;
23617;SDS011;18207;32.078;34.818;2022-12-07T13:39:17;1.30;;;1.20;;
23617;SDS011;18207;32.078;34.818;2022-12-07T13:41:52;1.20;;;1.20;;
23617;SDS011;18207;32.078;34.818;2022-12-07T13:44:26;1.20;;;1.20;;
23617;SDS011;18207;32.078;34.818;2022-12-07T13:47:12;1.40;;;1.33;;
23617;SDS011;18207;32.078;34.818;2022-12-07T13:49:49;1.00;;;1.00;;
23617;SDS011;18207;32.078;34.818;2022-12-07T13:52:23;1.27;;;1.27;;
23617;SDS011;18207;32.078;34.818;2022-12-07T13:54:56;1.60;;;1.50;;
23617;SDS011;18207;32.078;34.818;2022-12-07T13:57:30;1.55;;;1.45;;
23617;SDS011;18207;32.078;34.818;2022-12-07T14:00:13;1.15;;;1.15;;
23617;SDS011;18207;32.078;34.818;2022-12-07T14:02:54;1.17;;;1.17;;
23617;SDS011;18207;32.078;34.818;2022-12-07T14:05:28;2.55;;;1.20;;
23617;SDS011;18207;32.078;34.818;2022-12-07T14:08:00;1.10;;;1.10;;
23617;SDS011;18207;32.078;34.818;2022-12-07T14:10:35;0.82;;;0.82;;
23617;SDS011;18207;32.078;34.818;2022-12-07T14:13:22;1.20;;;1.20;;
23617;SDS011;18207;32.078;34.818;2022-12-07T14:16:03;1.40;;;1.30;;
23617;SDS011;18207;32.078;34.818;2022-12-07T14:18:50;1.17;;;1.17;;
23617;SDS011;18207;32.078;34.818;2022-12-07T14:21:22;1.30;;;1.20;;
23617;SDS011;18207;32.078;34.818;2022-12-07T14:24:08;1.80;;;1.08;;
23617;SDS011;18207;32.078;34.818;2022-12-07T14:26:46;1.45;;;1.27;;
23617;SDS011;18207;32.078;34.818;2022-12-07T14:32:22;1.50;;;1.27;;
23617;SDS011;18207;32.078;34.818;2022-12-07T14:34:57;0.98;;;0.95;;
23617;SDS011;18207;32.078;34.818;2022-12-07T14:37:31;1.20;;;1.13;;
23617;SDS011;18207;32.078;34.818;2022-12-07T14:40:01;1.50;;;1.20;;
23617;SDS011;18207;32.078;34.818;2022-12-07T14:42:33;0.90;;;0.90;;
23617;SDS011;18207;32.078;34.818;2022-12-07T14:45:05;1.30;;;1.20;;
23617;SDS011;18207;32.078;34.818;2022-12-07T14:47:45;1.23;;;1.23;;
23617;SDS011;18207;32.078;34.818;2022-12-07T14:50:36;0.90;;;0.90;;
23617;SDS011;18207;32.078;34.818;2022-12-07T14:53:30;1.00;;;1.00;;
23617;SDS011;18207;32.078;34.818;2022-12-07T14:56:07;1.20;;;1.10;;
23617;SDS011;18207;32.078;34.818;2022-12-07T14:58:38;1.30;;;1.20;;
23617;SDS011;18207;32.078;34.818;2022-12-07T15:01:09;1.40;;;1.20;;
23617;SDS011;18207;32.078;34.818;2022-12-07T15:03:41;1.27;;;1.17;;
23617;SDS011;18207;32.078;34.818;2022-12-07T15:06:17;1.08;;;1.08;;
23617;SDS011;18207;32.078;34.818;2022-12-07T15:08:47;1.30;;;1.20;;
23617;SDS011;18207;32.078;34.818;2022-12-07T15:11:18;1.10;;;1.10;;
23617;SDS011;18207;32.078;34.818;2022-12-07T15:13:48;1.35;;;1.25;;
23617;SDS011;18207;32.078;34.818;2022-12-07T15:16:38;1.10;;;1.10;;
23617;SDS011;18207;32.078;34.818;2022-12-07T15:19:34;1.02;;;1.02;;
23617;SDS011;18207;32.078;34.818;2022-12-07T15:22:04;1.00;;;1.00;;
23617;SDS011;18207;32.078;34.818;2022-12-07T15:24:37;0.82;;;0.77;;
23617;SDS011;18207;32.078;34.818;2022-12-07T15:27:08;1.08;;;1.08;;
23617;SDS011;18207;32.078;34.818;2022-12-07T15:29:39;1.15;;;1.05;;
23617;SDS011;18207;32.078;34.818;2022-12-07T15:32:09;1.00;;;1.00;;
23617;SDS011;18207;32.078;34.818;2022-12-07T15:34:42;1.67;;;0.98;;
23617;SDS011;18207;32.078;34.818;2022-12-07T15:37:13;1.10;;;1.10;;
23617;SDS011;18207;32.078;34.818;2022-12-07T15:39:43;1.98;;;1.00;;
23617;SDS011;18207;32.078;34.818;2022-12-07T15:42:13;1.10;;;1.10;;
23617;SDS011;18207;32.078;34.818;2022-12-07T15:44:44;1.02;;;1.02;;
23617;SDS011;18207;32.078;34.818;2022-12-07T15:47:33;1.20;;;1.10;;
23617;SDS011;18207;32.078;34.818;2022-12-07T15:50:27;1.52;;;1.10;;
23617;SDS011;18207;32.078;34.818;2022-12-07T15:52:58;0.98;;;0.98;;
23617;SDS011;18207;32.078;34.818;2022-12-07T15:55:28;1.15;;;1.00;;
23617;SDS011;18207;32.078;34.818;2022-12-07T15:57:58;2.15;;;1.10;;
23617;SDS011;18207;32.078;34.818;2022-12-07T16:00:29;1.40;;;1.30;;
23617;SDS011;18207;32.078;34.818;2022-12-07T16:03:09;1.38;;;1.25;;
23617;SDS011;18207;32.078;34.818;2022-12-07T16:05:41;1.60;;;1.20;;
23617;SDS011;18207;32.078;34.818;2022-12-07T16:08:17;0.90;;;0.90;;